createdAt,value
2018-05-31T00:00:27.059Z,16.60
2018-05-31T00:02:54.770Z,16.60
2018-05-31T00:05:23.209Z,16.60
2018-05-31T00:07:50.922Z,16.50
2018-05-31T00:10:19.363Z,16.50
2018-05-31T00:12:47.086Z,16.50
2018-05-31T00:15:14.759Z,16.50
2018-05-31T00:17:42.443Z,16.50
2018-05-31T00:20:10.162Z,16.40
2018-05-31T00:22:37.917Z,16.40
2018-05-31T00:25:05.632Z,16.40
2018-05-31T00:27:33.292Z,16.40
2018-05-31T00:30:01.009Z,16.40
2018-05-31T00:32:29.385Z,16.40
2018-05-31T00:34:57.118Z,16.40
2018-05-31T00:37:24.846Z,16.30
2018-05-31T00:39:52.516Z,16.40
2018-05-31T00:42:20.196Z,16.40
2018-05-31T00:44:47.919Z,16.30
2018-05-31T00:47:15.623Z,16.30
2018-05-31T00:49:43.358Z,16.30
2018-05-31T00:52:11.075Z,16.40
2018-05-31T00:54:39.519Z,16.40
2018-05-31T00:57:07.227Z,16.30
2018-05-31T00:59:34.975Z,16.40
2018-05-31T01:02:03.415Z,16.40
2018-05-31T01:04:31.126Z,16.40
2018-05-31T01:06:59.572Z,16.40
2018-05-31T01:09:27.291Z,16.40
2018-05-31T01:11:55.025Z,16.40
2018-05-31T01:14:22.745Z,16.40
2018-05-31T01:16:50.416Z,16.50
2018-05-31T01:19:18.081Z,16.50
2018-05-31T01:21:45.798Z,16.50
2018-05-31T01:24:13.470Z,16.60
2018-05-31T01:26:41.187Z,16.60
2018-05-31T01:29:08.863Z,16.60
2018-05-31T01:31:37.349Z,16.70
2018-05-31T01:34:05.787Z,16.70
2018-05-31T01:36:33.509Z,16.70
2018-05-31T01:39:01.231Z,16.70
2018-05-31T01:41:28.951Z,16.70
2018-05-31T01:43:56.699Z,16.70
2018-05-31T01:46:24.362Z,16.70
2018-05-31T01:48:52.035Z,16.60
2018-05-31T01:51:19.747Z,16.60
2018-05-31T01:53:47.427Z,16.60
2018-05-31T01:56:15.903Z,16.60
2018-05-31T01:58:44.343Z,16.60
2018-05-31T02:01:12.072Z,16.50
2018-05-31T02:03:39.790Z,16.60
2018-05-31T02:06:07.518Z,16.50
2018-05-31T02:08:35.247Z,16.50
2018-05-31T02:11:03.674Z,16.50
2018-05-31T02:13:31.398Z,16.50
2018-05-31T02:15:59.128Z,16.50
2018-05-31T02:18:27.631Z,16.50
2018-05-31T02:20:56.078Z,16.50
2018-05-31T02:23:23.757Z,16.50
2018-05-31T02:25:51.507Z,16.50
2018-05-31T02:28:19.976Z,16.50
2018-05-31T02:30:47.696Z,16.40
2018-05-31T02:33:15.387Z,16.40
2018-05-31T02:35:43.060Z,16.40
2018-05-31T02:38:10.768Z,16.40
2018-05-31T02:40:39.206Z,16.40
2018-05-31T02:43:06.922Z,16.30
2018-05-31T02:45:34.638Z,16.40
2018-05-31T02:48:02.379Z,16.30
2018-05-31T02:50:30.071Z,16.30
2018-05-31T02:52:57.812Z,16.30
2018-05-31T02:55:25.480Z,16.20
2018-05-31T02:57:53.193Z,16.20
2018-05-31T03:00:21.624Z,16.10
2018-05-31T03:02:49.343Z,16.10
2018-05-31T03:05:17.771Z,16.10
2018-05-31T03:07:45.525Z,16.00
2018-05-31T03:10:13.195Z,16.00
2018-05-31T03:12:40.897Z,16.00
2018-05-31T03:15:09.375Z,16.00
2018-05-31T03:17:37.813Z,16.00
2018-05-31T03:20:05.523Z,15.90
2018-05-31T03:22:34.008Z,16.00
2018-05-31T03:25:02.489Z,16.00
2018-05-31T03:27:30.223Z,16.00
2018-05-31T03:29:57.903Z,16.00
2018-05-31T03:32:25.632Z,16.10
2018-05-31T03:34:54.131Z,16.10
2018-05-31T03:37:21.822Z,16.00
2018-05-31T03:39:49.488Z,16.10
2018-05-31T03:42:17.203Z,16.10
2018-05-31T03:44:45.676Z,16.20
2018-05-31T03:47:13.410Z,16.20
2018-05-31T03:49:41.101Z,16.20
2018-05-31T03:52:08.815Z,16.30
2018-05-31T03:54:38.126Z,16.30
2018-05-31T03:57:05.901Z,16.30
2018-05-31T03:59:33.591Z,16.40
2018-05-31T04:02:01.283Z,16.40
2018-05-31T04:04:29.774Z,16.50
2018-05-31T04:06:58.216Z,16.50
2018-05-31T04:09:25.929Z,16.50
2018-05-31T04:11:54.361Z,16.60
2018-05-31T04:14:22.092Z,16.50
2018-05-31T04:16:50.678Z,16.60
2018-05-31T04:19:18.360Z,16.70
2018-05-31T04:21:46.100Z,16.80
2018-05-31T04:24:13.792Z,17.00
2018-05-31T04:26:41.472Z,17.10
2018-05-31T04:29:09.259Z,17.30
2018-05-31T04:31:37.688Z,17.70
2018-05-31T04:34:05.417Z,17.70
2018-05-31T04:36:33.129Z,17.90
2018-05-31T04:39:00.844Z,18.10
2018-05-31T04:41:28.535Z,18.30
2018-05-31T04:43:56.258Z,18.40
2018-05-31T04:46:24.712Z,18.70
2018-05-31T04:48:52.426Z,18.70
2018-05-31T04:51:20.095Z,18.80
2018-05-31T04:53:47.823Z,18.90
2018-05-31T04:56:16.266Z,19.20
2018-05-31T04:58:43.963Z,19.20
2018-05-31T05:01:12.448Z,19.40
2018-05-31T05:03:40.885Z,19.50
2018-05-31T05:06:08.591Z,19.50
2018-05-31T05:08:37.076Z,19.70
2018-05-31T05:11:04.799Z,19.60
2018-05-31T05:13:32.471Z,19.80
2018-05-31T05:16:00.555Z,20.00
2018-05-31T05:18:29.043Z,20.30
2018-05-31T05:20:57.490Z,20.50
2018-05-31T05:23:25.203Z,20.50
2018-05-31T05:25:52.887Z,20.60
2018-05-31T05:28:20.629Z,20.80
2018-05-31T05:30:48.308Z,20.90
2018-05-31T05:33:16.039Z,21.00
2018-05-31T05:35:43.735Z,21.20
2018-05-31T05:38:11.455Z,21.30
2018-05-31T05:40:39.197Z,21.30
2018-05-31T05:43:06.863Z,21.50
2018-05-31T05:45:34.584Z,21.60
2018-05-31T05:48:02.267Z,21.70
2018-05-31T05:50:29.987Z,21.80
2018-05-31T05:52:58.415Z,22.00
2018-05-31T05:55:26.133Z,22.00
2018-05-31T05:57:54.610Z,22.30
2018-05-31T06:00:22.296Z,22.30
2018-05-31T06:02:49.999Z,22.40
2018-05-31T06:05:17.667Z,22.50
2018-05-31T06:07:46.171Z,22.80
2018-05-31T06:10:14.667Z,22.90
2018-05-31T06:12:43.135Z,23.00
2018-05-31T06:15:11.569Z,23.10
2018-05-31T06:17:39.240Z,23.00
2018-05-31T06:20:06.995Z,23.10
2018-05-31T06:22:34.677Z,23.10
2018-05-31T06:25:03.168Z,23.40
2018-05-31T06:27:32.123Z,23.60
2018-05-31T06:29:59.842Z,23.50
2018-05-31T06:32:28.660Z,23.70
2018-05-31T06:34:56.449Z,23.80
2018-05-31T06:37:24.165Z,23.90
2018-05-31T06:39:52.625Z,24.10
2018-05-31T06:42:20.280Z,24.10
2018-05-31T06:44:48.007Z,24.30
2018-05-31T06:47:15.684Z,24.40
2018-05-31T06:49:43.393Z,24.50
2018-05-31T06:52:11.814Z,24.70
2018-05-31T06:54:39.537Z,24.70
2018-05-31T06:57:08.004Z,24.80
2018-05-31T06:59:36.437Z,25.00
2018-05-31T07:02:04.138Z,24.90
2018-05-31T07:04:31.791Z,25.10
2018-05-31T07:06:59.507Z,25.30
2018-05-31T07:09:27.178Z,25.40
2018-05-31T07:11:54.848Z,25.50
2018-05-31T07:14:22.560Z,25.60
2018-05-31T07:16:51.036Z,25.80
2018-05-31T07:19:19.475Z,25.90
2018-05-31T07:21:47.221Z,25.90
2018-05-31T07:24:14.891Z,26.00
2018-05-31T07:26:42.608Z,26.10
2018-05-31T07:29:11.087Z,26.30
2018-05-31T07:31:39.566Z,26.50
2018-05-31T07:34:08.003Z,26.70
2018-05-31T07:36:35.719Z,26.60
2018-05-31T07:39:03.414Z,26.80
2018-05-31T07:41:31.103Z,27.00
2018-05-31T07:43:58.769Z,27.10
2018-05-31T07:46:26.475Z,27.20
2018-05-31T07:48:54.905Z,27.30
2018-05-31T07:51:23.406Z,27.40
2018-05-31T07:53:51.063Z,27.50
2018-05-31T07:56:18.768Z,27.50
2018-05-31T07:58:46.429Z,27.40
2018-05-31T08:01:14.151Z,27.50
2018-05-31T08:03:41.829Z,27.50
2018-05-31T08:06:11.071Z,27.60
2018-05-31T08:08:38.782Z,27.60
2018-05-31T08:11:06.442Z,27.80
2018-05-31T08:13:34.157Z,28.00
2018-05-31T08:16:01.846Z,28.10
2018-05-31T08:18:29.558Z,28.20
2018-05-31T08:20:57.991Z,28.60
2018-05-31T08:23:25.701Z,28.50
2018-05-31T08:25:54.131Z,28.80
2018-05-31T08:28:21.842Z,28.70
2018-05-31T08:30:50.276Z,28.90
2018-05-31T08:33:18.003Z,28.80
2018-05-31T08:35:45.692Z,28.90
2018-05-31T08:38:13.359Z,29.10
2018-05-31T08:40:41.071Z,29.20
2018-05-31T08:43:09.487Z,29.70
2018-05-31T08:45:37.202Z,29.70
2018-05-31T08:48:05.631Z,30.10
2018-05-31T08:50:33.297Z,30.10
2018-05-31T08:53:01.002Z,30.30
2018-05-31T08:55:29.455Z,30.60
2018-05-31T08:57:57.179Z,30.60
2018-05-31T09:00:24.844Z,30.60
2018-05-31T09:02:52.561Z,30.60
2018-05-31T09:05:20.287Z,30.80
2018-05-31T09:07:48.011Z,31.10
2018-05-31T09:10:16.427Z,31.60
2018-05-31T09:12:44.122Z,31.60
2018-05-31T09:15:12.089Z,31.80
2018-05-31T09:17:40.590Z,31.90
2018-05-31T09:20:09.019Z,32.00
2018-05-31T09:22:36.674Z,32.00
2018-05-31T09:25:04.407Z,31.90
2018-05-31T09:27:32.859Z,31.40
2018-05-31T09:30:00.584Z,31.40
2018-05-31T09:32:28.239Z,31.10
2018-05-31T09:34:55.950Z,30.90
2018-05-31T09:37:23.659Z,30.60
2018-05-31T09:39:51.316Z,30.40
2018-05-31T09:42:19.028Z,30.10
2018-05-31T09:44:46.722Z,29.90
2018-05-31T09:47:15.192Z,29.70
2018-05-31T09:49:43.619Z,29.70
2018-05-31T09:52:11.323Z,29.70
2018-05-31T09:54:39.011Z,29.60
2018-05-31T09:57:06.721Z,29.60
2018-05-31T09:59:34.383Z,29.50
2018-05-31T10:02:02.107Z,29.50
2018-05-31T10:04:29.793Z,29.40
2018-05-31T10:06:57.500Z,29.40
2018-05-31T10:09:25.163Z,29.30
2018-05-31T10:11:53.651Z,29.20
2018-05-31T10:14:22.101Z,29.10
2018-05-31T10:16:49.806Z,29.10
2018-05-31T10:19:18.232Z,29.20
2018-05-31T10:21:45.931Z,29.10
2018-05-31T10:24:14.391Z,29.10
2018-05-31T10:26:42.092Z,29.20
2018-05-31T10:29:10.558Z,29.20
2018-05-31T10:31:39.024Z,29.10
2018-05-31T10:34:06.683Z,29.00
2018-05-31T10:36:34.378Z,28.90
2018-05-31T10:39:02.841Z,29.00
2018-05-31T10:41:31.272Z,29.00
2018-05-31T10:43:58.986Z,29.00
2018-05-31T10:46:27.422Z,29.10
2018-05-31T10:48:55.119Z,29.10
2018-05-31T10:51:22.792Z,29.20
2018-05-31T10:53:51.315Z,29.30
2018-05-31T10:56:18.979Z,29.20
2018-05-31T10:58:46.687Z,29.30
2018-05-31T11:01:14.359Z,29.40
2018-05-31T11:03:42.835Z,29.40
2018-05-31T11:06:10.497Z,29.40
2018-05-31T11:08:38.993Z,29.40
2018-05-31T11:11:06.723Z,29.40
2018-05-31T11:13:34.383Z,29.40
2018-05-31T11:16:02.895Z,29.40
2018-05-31T11:18:31.326Z,29.30
2018-05-31T11:20:59.001Z,29.30
2018-05-31T11:23:27.474Z,29.30
2018-05-31T11:25:55.175Z,29.30
2018-05-31T11:28:23.637Z,29.30
2018-05-31T11:30:51.348Z,29.30
2018-05-31T11:33:19.052Z,29.30
2018-05-31T11:35:46.712Z,29.30
2018-05-31T11:38:14.416Z,29.40
2018-05-31T11:40:42.835Z,29.50
2018-05-31T11:43:10.536Z,29.40
2018-05-31T11:45:38.255Z,29.50
2018-05-31T11:48:05.908Z,29.60
2018-05-31T11:50:33.560Z,29.70
2018-05-31T11:53:01.259Z,29.70
2018-05-31T11:55:28.930Z,29.80
2018-05-31T11:57:56.639Z,29.80
2018-05-31T12:00:24.346Z,29.80
2018-05-31T12:02:52.049Z,29.80
2018-05-31T12:05:20.467Z,30.00
2018-05-31T12:07:48.180Z,30.00
2018-05-31T12:10:15.839Z,30.10
2018-05-31T12:12:44.319Z,30.20
2018-05-31T12:15:11.991Z,30.10
2018-05-31T12:17:40.470Z,30.10
2018-05-31T12:20:08.896Z,30.20
2018-05-31T12:22:36.559Z,30.10
2018-05-31T12:25:04.259Z,30.20
2018-05-31T12:27:31.966Z,30.10
2018-05-31T12:29:59.661Z,30.10
2018-05-31T12:32:27.306Z,30.10
2018-05-31T12:34:55.033Z,30.30
2018-05-31T12:37:23.468Z,30.40
2018-05-31T12:39:51.194Z,30.40
2018-05-31T12:42:18.857Z,30.40
2018-05-31T12:44:46.517Z,30.40
2018-05-31T12:47:14.223Z,30.40
2018-05-31T12:49:41.984Z,30.40
2018-05-31T12:52:09.694Z,30.30
2018-05-31T12:54:38.147Z,30.10
2018-05-31T12:57:05.865Z,30.10
2018-05-31T12:59:33.529Z,30.10
2018-05-31T13:02:01.250Z,30.00
2018-05-31T13:04:29.685Z,29.90
2018-05-31T13:06:57.402Z,29.90
2018-05-31T13:09:25.830Z,29.60
2018-05-31T13:11:53.544Z,29.70
2018-05-31T13:14:21.977Z,29.60
2018-05-31T13:16:49.681Z,29.60
2018-05-31T13:19:18.102Z,30.10
2018-05-31T13:21:45.807Z,30.00
2018-05-31T13:24:13.470Z,30.30
2018-05-31T13:26:41.175Z,30.50
2018-05-31T13:29:08.831Z,30.50
2018-05-31T13:31:36.553Z,30.40
2018-05-31T13:34:04.223Z,30.40
2018-05-31T13:36:32.680Z,30.50
2018-05-31T13:39:01.765Z,30.50
2018-05-31T13:41:30.492Z,30.80
2018-05-31T13:43:58.985Z,30.90
2018-05-31T13:46:27.466Z,31.00
2018-05-31T13:48:55.894Z,31.10
2018-05-31T13:51:23.600Z,31.10
2018-05-31T13:53:52.024Z,31.40
2018-05-31T13:56:19.684Z,31.40
2018-05-31T13:58:47.404Z,31.60
2018-05-31T14:01:15.824Z,31.60
2018-05-31T14:03:43.515Z,31.50
2018-05-31T14:06:11.168Z,31.40
2018-05-31T14:08:38.872Z,31.10
2018-05-31T14:11:07.287Z,30.80
2018-05-31T14:13:34.989Z,30.70
2018-05-31T14:16:02.694Z,30.70
2018-05-31T14:18:30.354Z,30.70
2018-05-31T14:20:59.216Z,30.80
2018-05-31T14:23:28.403Z,31.30
2018-05-31T14:25:56.114Z,31.30
2018-05-31T14:28:24.111Z,31.50
2018-05-31T14:30:51.825Z,31.60
2018-05-31T14:33:20.308Z,32.10
2018-05-31T14:35:47.999Z,32.20
2018-05-31T14:38:15.663Z,32.10
2018-05-31T14:40:43.372Z,32.00
2018-05-31T14:43:11.870Z,31.70
2018-05-31T14:45:40.629Z,31.50
2018-05-31T14:48:08.342Z,31.50
2018-05-31T14:50:36.172Z,31.30
2018-05-31T14:53:04.605Z,31.00
2018-05-31T14:55:32.312Z,31.00
2018-05-31T14:58:01.289Z,30.90
2018-05-31T15:00:29.676Z,30.80
2018-05-31T15:02:57.371Z,30.60
2018-05-31T15:05:25.073Z,30.50
2018-05-31T15:07:52.752Z,30.40
2018-05-31T15:16:03.883Z,30.10
2018-05-31T15:18:33.263Z,30.00
2018-05-31T15:21:00.982Z,29.90
2018-05-31T15:23:29.467Z,29.90
2018-05-31T15:25:57.155Z,29.90
2018-05-31T15:28:24.846Z,29.80
2018-05-31T15:30:52.550Z,29.80
2018-05-31T15:33:20.211Z,29.80
2018-05-31T15:35:48.608Z,29.80
2018-05-31T15:38:17.500Z,29.70
2018-05-31T15:40:45.281Z,29.70
2018-05-31T15:43:14.703Z,29.70
2018-05-31T15:45:44.345Z,29.70
2018-05-31T15:48:12.806Z,29.60
2018-05-31T15:50:40.468Z,29.60
2018-05-31T15:53:08.939Z,29.40
2018-05-31T15:55:36.627Z,29.30
2018-05-31T15:58:05.058Z,29.20
2018-05-31T16:00:32.759Z,29.20
2018-05-31T16:03:01.199Z,29.20
2018-05-31T16:05:28.899Z,29.10
2018-05-31T16:07:57.369Z,29.00
2018-05-31T16:10:25.080Z,29.10
2018-05-31T16:12:54.543Z,29.00
2018-05-31T16:15:23.012Z,28.90
2018-05-31T16:17:50.668Z,28.80
2018-05-31T16:20:18.375Z,28.80
2018-05-31T16:22:46.584Z,28.70
2018-05-31T16:25:14.289Z,28.70
2018-05-31T16:27:42.724Z,28.50
2018-05-31T16:30:10.987Z,28.50
2018-05-31T16:32:38.641Z,28.50
2018-05-31T16:35:07.018Z,28.40
2018-05-31T16:37:35.534Z,28.40
2018-05-31T16:40:03.223Z,28.30
2018-05-31T16:42:31.688Z,28.30
2018-05-31T16:44:59.349Z,28.30
2018-05-31T16:47:28.808Z,28.30
2018-05-31T16:49:56.467Z,28.20
2018-05-31T16:52:24.169Z,28.20
2018-05-31T16:54:51.815Z,28.20
2018-05-31T16:57:19.520Z,28.20
2018-05-31T16:59:48.839Z,28.10
2018-05-31T17:02:17.250Z,28.10
2018-05-31T17:04:45.027Z,28.00
2018-05-31T17:07:12.971Z,28.00
2018-05-31T17:09:40.684Z,28.00
2018-05-31T17:12:08.343Z,28.10
2018-05-31T17:14:36.045Z,28.20
2018-05-31T17:17:04.454Z,28.40
2018-05-31T17:19:32.154Z,28.50
2018-05-31T17:21:59.806Z,28.70
2018-05-31T17:24:27.469Z,28.80
2018-05-31T17:26:55.159Z,28.90
2018-05-31T17:29:23.618Z,29.10
2018-05-31T17:31:51.330Z,29.00
2018-05-31T17:34:19.205Z,29.10
2018-05-31T17:36:47.705Z,29.10
2018-05-31T17:39:16.343Z,29.10
2018-05-31T17:41:44.435Z,29.00
2018-05-31T17:44:13.099Z,29.00
2018-05-31T17:46:40.799Z,29.00
2018-05-31T17:49:08.455Z,28.90
2018-05-31T17:51:36.160Z,28.90
2018-05-31T17:54:05.118Z,28.60
2018-05-31T17:56:32.819Z,28.60
2018-05-31T17:59:01.251Z,28.50
2018-05-31T18:01:28.960Z,28.40
2018-05-31T18:03:57.389Z,28.40
2018-05-31T18:06:27.044Z,28.40
2018-05-31T18:08:55.316Z,28.20
2018-05-31T18:11:23.032Z,28.20
2018-05-31T18:13:50.737Z,28.10
2018-05-31T18:16:18.400Z,28.00
2018-05-31T18:18:48.697Z,27.90
2018-05-31T18:21:16.366Z,27.80
2018-05-31T18:23:44.083Z,27.70
2018-05-31T18:26:11.805Z,27.50
2018-05-31T18:28:40.284Z,27.50
2018-05-31T18:31:09.791Z,27.30
2018-05-31T18:33:37.514Z,27.20
2018-05-31T18:36:05.183Z,27.10
2018-05-31T18:38:32.856Z,27.00
2018-05-31T18:41:01.533Z,26.90
2018-05-31T18:43:29.193Z,26.80
2018-05-31T18:45:56.905Z,26.70
2018-05-31T18:48:29.188Z,26.50
2018-05-31T18:50:57.657Z,26.40
2018-05-31T18:53:26.083Z,26.20
2018-05-31T18:55:53.783Z,26.20
2018-05-31T18:58:21.450Z,26.10
2018-05-31T19:00:49.173Z,25.90
2018-05-31T19:03:16.832Z,25.70
2018-05-31T19:05:45.161Z,25.50
2018-05-31T19:08:14.984Z,25.30
2018-05-31T19:10:44.087Z,24.90
2018-05-31T19:13:17.577Z,24.80
2018-05-31T19:15:46.049Z,24.50
2018-05-31T19:18:20.111Z,24.30
2018-05-31T19:20:47.837Z,24.30
2018-05-31T19:23:16.271Z,23.90
2018-05-31T19:25:43.982Z,24.00
2018-05-31T19:28:12.413Z,23.70
2018-05-31T19:30:48.608Z,23.70
2018-05-31T19:33:17.048Z,23.40
2018-05-31T19:35:50.591Z,23.40
2018-05-31T19:38:19.970Z,23.10
2018-05-31T19:40:47.679Z,23.10
2018-05-31T19:43:21.135Z,23.00
2018-05-31T19:45:49.360Z,22.90
2018-05-31T19:48:17.091Z,22.80
2018-05-31T19:50:46.487Z,22.60
2018-05-31T19:56:16.104Z,22.40
2018-05-31T19:58:51.168Z,22.30
2018-05-31T20:01:25.955Z,22.20
2018-05-31T20:03:53.676Z,22.10
2018-05-31T20:06:23.477Z,22.10
2018-05-31T20:08:54.631Z,22.00
2018-05-31T20:11:22.300Z,21.90
2018-05-31T20:13:53.827Z,21.80
2018-05-31T20:16:21.548Z,21.80
2018-05-31T20:18:49.271Z,21.70
2018-05-31T20:21:19.083Z,21.70
2018-05-31T20:23:48.519Z,21.60
2018-05-31T20:26:17.175Z,21.50
2018-05-31T20:28:45.077Z,21.50
2018-05-31T20:31:12.788Z,21.50
2018-05-31T20:33:42.136Z,21.40
2018-05-31T20:36:09.835Z,21.40
2018-05-31T20:38:38.585Z,21.30
2018-05-31T20:41:06.291Z,21.30
2018-05-31T20:43:35.515Z,21.20
2018-05-31T20:46:04.092Z,21.20
2018-05-31T20:48:31.763Z,21.20
2018-05-31T20:50:59.472Z,21.20
2018-05-31T20:53:27.271Z,21.10
2018-05-31T20:55:55.701Z,21.00
2018-05-31T20:58:23.367Z,21.00
2018-05-31T21:00:51.083Z,20.90
2018-05-31T21:03:18.771Z,20.90
2018-05-31T21:05:46.433Z,20.80
2018-05-31T21:08:14.710Z,20.80
2018-05-31T21:10:42.439Z,20.70
2018-05-31T21:13:10.872Z,20.60
2018-05-31T21:15:39.223Z,20.60
2018-05-31T21:18:06.927Z,20.60
2018-05-31T21:20:34.601Z,20.50
2018-05-31T21:23:03.084Z,20.50
2018-05-31T21:25:31.512Z,20.40
2018-05-31T21:27:59.207Z,20.40
2018-05-31T21:30:26.868Z,20.40
2018-05-31T21:32:54.599Z,20.30
2018-05-31T21:35:22.270Z,20.30
2018-05-31T21:37:49.975Z,20.20
2018-05-31T21:40:18.403Z,20.20
2018-05-31T21:42:46.122Z,20.10
2018-05-31T21:45:13.827Z,20.10
2018-05-31T21:47:41.527Z,20.10
2018-05-31T21:50:09.254Z,20.10
2018-05-31T21:52:36.947Z,20.10
2018-05-31T21:55:04.702Z,20.10
2018-05-31T21:57:32.356Z,20.00
2018-05-31T22:00:00.056Z,20.00
2018-05-31T22:02:28.482Z,19.90
2018-05-31T22:04:56.195Z,19.90
2018-05-31T22:07:24.466Z,19.90
2018-05-31T22:12:26.983Z,19.80
2018-05-31T22:14:55.453Z,19.80
2018-05-31T22:17:24.542Z,19.70
2018-05-31T22:19:53.017Z,19.60
2018-05-31T22:22:20.675Z,19.60
2018-05-31T22:24:49.336Z,19.60
2018-05-31T22:27:17.858Z,19.50
2018-05-31T22:29:46.301Z,19.50
2018-05-31T22:32:16.929Z,19.50
2018-05-31T22:34:44.589Z,19.40
2018-05-31T22:37:12.257Z,19.50
2018-05-31T22:39:41.259Z,19.40
2018-05-31T22:42:09.952Z,19.40
2018-05-31T22:44:38.597Z,19.30
2018-05-31T22:47:06.263Z,19.30
2018-05-31T22:49:33.967Z,19.30
2018-05-31T22:52:01.622Z,19.30
2018-05-31T22:54:29.942Z,19.30
2018-05-31T22:56:57.611Z,19.30
2018-05-31T22:59:25.317Z,19.30
2018-05-31T23:01:53.773Z,19.30
2018-05-31T23:04:21.712Z,19.30
2018-05-31T23:06:49.383Z,19.40
2018-05-31T23:09:17.114Z,19.40
2018-05-31T23:11:45.537Z,19.40
2018-05-31T23:14:14.060Z,19.40
2018-05-31T23:16:41.811Z,19.50
2018-05-31T23:19:09.469Z,19.50
2018-05-31T23:21:37.171Z,19.50
2018-05-31T23:24:06.363Z,19.40
2018-05-31T23:26:34.834Z,19.40
2018-05-31T23:29:03.465Z,19.40
2018-05-31T23:31:31.163Z,19.40
2018-05-31T23:34:01.707Z,19.40
2018-05-31T23:36:29.419Z,19.50
2018-05-31T23:38:57.079Z,19.60
2018-05-31T23:41:25.360Z,19.70
2018-05-31T23:43:53.054Z,19.70
2018-05-31T23:46:20.750Z,19.80
2018-05-31T23:48:50.138Z,19.90
2018-05-31T23:51:17.788Z,19.90
2018-05-31T23:53:45.483Z,19.90
2018-05-31T23:56:15.878Z,19.80
2018-05-31T23:58:43.603Z,19.70
